sensor_id;sensor_type;location;lat;lon;timestamp;P1;durP1;ratioP1;P2;durP2;ratioP2
18176;SDS011;9213;50.858;3.964;2022-12-13T00:01:37;39.17;;;20.10;;
18176;SDS011;9213;50.858;3.964;2022-12-13T00:04:04;37.47;;;20.27;;
18176;SDS011;9213;50.858;3.964;2022-12-13T00:06:33;41.60;;;20.40;;
18176;SDS011;9213;50.858;3.964;2022-12-13T00:09:01;36.03;;;20.83;;
18176;SDS011;9213;50.858;3.964;2022-12-13T00:11:29;43.13;;;21.53;;
18176;SDS011;9213;50.858;3.964;2022-12-13T00:13:56;37.20;;;19.80;;
18176;SDS011;9213;50.858;3.964;2022-12-13T00:16:25;40.63;;;21.20;;
18176;SDS011;9213;50.858;3.964;2022-12-13T00:18:53;39.33;;;20.20;;
18176;SDS011;9213;50.858;3.964;2022-12-13T00:21:22;40.77;;;20.67;;
18176;SDS011;9213;50.858;3.964;2022-12-13T00:23:50;39.77;;;20.57;;
18176;SDS011;9213;50.858;3.964;2022-12-13T00:26:18;37.53;;;19.60;;
18176;SDS011;9213;50.858;3.964;2022-12-13T00:28:46;37.70;;;20.33;;
18176;SDS011;9213;50.858;3.964;2022-12-13T00:31:15;37.57;;;20.30;;
18176;SDS011;9213;50.858;3.964;2022-12-13T00:33:43;36.70;;;19.20;;
18176;SDS011;9213;50.858;3.964;2022-12-13T00:36:10;40.37;;;20.10;;
18176;SDS011;9213;50.858;3.964;2022-12-13T00:38:37;36.97;;;19.97;;
18176;SDS011;9213;50.858;3.964;2022-12-13T00:41:11;38.60;;;19.00;;
18176;SDS011;9213;50.858;3.964;2022-12-13T00:43:39;36.80;;;19.03;;
18176;SDS011;9213;50.858;3.964;2022-12-13T00:46:07;35.37;;;17.73;;
18176;SDS011;9213;50.858;3.964;2022-12-13T00:48:38;30.07;;;16.00;;
18176;SDS011;9213;50.858;3.964;2022-12-13T00:51:07;35.07;;;16.93;;
18176;SDS011;9213;50.858;3.964;2022-12-13T00:53:35;29.13;;;15.63;;
18176;SDS011;9213;50.858;3.964;2022-12-13T00:56:03;30.70;;;16.43;;
18176;SDS011;9213;50.858;3.964;2022-12-13T00:58:34;31.13;;;15.60;;
18176;SDS011;9213;50.858;3.964;2022-12-13T01:01:02;26.70;;;15.27;;
18176;SDS011;9213;50.858;3.964;2022-12-13T01:03:29;30.17;;;15.27;;
18176;SDS011;9213;50.858;3.964;2022-12-13T01:05:57;29.67;;;16.30;;
18176;SDS011;9213;50.858;3.964;2022-12-13T01:08:26;31.83;;;15.77;;
18176;SDS011;9213;50.858;3.964;2022-12-13T01:10:53;31.17;;;15.37;;
18176;SDS011;9213;50.858;3.964;2022-12-13T01:13:20;31.70;;;17.27;;
18176;SDS011;9213;50.858;3.964;2022-12-13T01:15:47;29.10;;;15.57;;
18176;SDS011;9213;50.858;3.964;2022-12-13T01:18:14;28.07;;;14.33;;
18176;SDS011;9213;50.858;3.964;2022-12-13T01:20:43;28.50;;;15.17;;
18176;SDS011;9213;50.858;3.964;2022-12-13T01:23:23;27.37;;;14.27;;
18176;SDS011;9213;50.858;3.964;2022-12-13T01:25:52;28.83;;;15.07;;
18176;SDS011;9213;50.858;3.964;2022-12-13T01:28:19;28.13;;;14.60;;
18176;SDS011;9213;50.858;3.964;2022-12-13T01:30:52;29.67;;;14.97;;
18176;SDS011;9213;50.858;3.964;2022-12-13T01:33:20;29.63;;;15.77;;
18176;SDS011;9213;50.858;3.964;2022-12-13T01:35:47;33.97;;;16.30;;
18176;SDS011;9213;50.858;3.964;2022-12-13T01:38:14;32.00;;;14.80;;
18176;SDS011;9213;50.858;3.964;2022-12-13T01:40:42;28.17;;;14.67;;
18176;SDS011;9213;50.858;3.964;2022-12-13T01:43:12;25.70;;;13.97;;
18176;SDS011;9213;50.858;3.964;2022-12-13T01:45:39;32.30;;;15.03;;
18176;SDS011;9213;50.858;3.964;2022-12-13T01:48:07;27.93;;;13.50;;
18176;SDS011;9213;50.858;3.964;2022-12-13T01:50:40;28.70;;;14.73;;
18176;SDS011;9213;50.858;3.964;2022-12-13T01:53:10;32.30;;;15.07;;
18176;SDS011;9213;50.858;3.964;2022-12-13T01:55:42;25.83;;;13.97;;
18176;SDS011;9213;50.858;3.964;2022-12-13T01:58:13;27.70;;;14.57;;
18176;SDS011;9213;50.858;3.964;2022-12-13T02:00:40;26.63;;;14.53;;
18176;SDS011;9213;50.858;3.964;2022-12-13T02:03:08;29.63;;;15.27;;
18176;SDS011;9213;50.858;3.964;2022-12-13T02:05:37;30.23;;;14.60;;
18176;SDS011;9213;50.858;3.964;2022-12-13T02:08:07;26.57;;;14.20;;
18176;SDS011;9213;50.858;3.964;2022-12-13T02:10:36;31.20;;;14.70;;
18176;SDS011;9213;50.858;3.964;2022-12-13T02:13:04;31.27;;;16.03;;
18176;SDS011;9213;50.858;3.964;2022-12-13T02:15:33;28.63;;;14.30;;
18176;SDS011;9213;50.858;3.964;2022-12-13T02:18:14;30.90;;;15.37;;
18176;SDS011;9213;50.858;3.964;2022-12-13T02:27:01;28.97;;;14.00;;
18176;SDS011;9213;50.858;3.964;2022-12-13T02:32:40;32.47;;;15.40;;
18176;SDS011;9213;50.858;3.964;2022-12-13T02:35:16;29.77;;;14.37;;
18176;SDS011;9213;50.858;3.964;2022-12-13T02:37:49;28.70;;;15.03;;
18176;SDS011;9213;50.858;3.964;2022-12-13T02:40:22;31.73;;;15.10;;
18176;SDS011;9213;50.858;3.964;2022-12-13T02:43:01;28.87;;;14.30;;
18176;SDS011;9213;50.858;3.964;2022-12-13T02:45:33;36.63;;;16.03;;
18176;SDS011;9213;50.858;3.964;2022-12-13T02:48:06;26.20;;;14.07;;
18176;SDS011;9213;50.858;3.964;2022-12-13T02:50:34;30.90;;;15.53;;
18176;SDS011;9213;50.858;3.964;2022-12-13T02:53:01;29.63;;;14.40;;
18176;SDS011;9213;50.858;3.964;2022-12-13T02:55:30;27.67;;;14.20;;
18176;SDS011;9213;50.858;3.964;2022-12-13T02:57:59;28.27;;;15.47;;
18176;SDS011;9213;50.858;3.964;2022-12-13T03:00:28;36.90;;;15.40;;
18176;SDS011;9213;50.858;3.964;2022-12-13T03:03:09;29.77;;;14.63;;
18176;SDS011;9213;50.858;3.964;2022-12-13T03:05:44;29.53;;;14.77;;
18176;SDS011;9213;50.858;3.964;2022-12-13T03:08:37;33.27;;;15.23;;
18176;SDS011;9213;50.858;3.964;2022-12-13T03:11:11;31.57;;;14.23;;
18176;SDS011;9213;50.858;3.964;2022-12-13T03:13:43;27.30;;;14.97;;
18176;SDS011;9213;50.858;3.964;2022-12-13T03:16:18;29.07;;;15.37;;
18176;SDS011;9213;50.858;3.964;2022-12-13T03:18:50;31.30;;;15.23;;
18176;SDS011;9213;50.858;3.964;2022-12-13T03:21:19;29.93;;;15.07;;
18176;SDS011;9213;50.858;3.964;2022-12-13T03:23:46;28.40;;;15.73;;
18176;SDS011;9213;50.858;3.964;2022-12-13T03:26:13;27.47;;;15.43;;
18176;SDS011;9213;50.858;3.964;2022-12-13T03:28:43;26.37;;;14.47;;
18176;SDS011;9213;50.858;3.964;2022-12-13T03:31:10;28.60;;;14.87;;
18176;SDS011;9213;50.858;3.964;2022-12-13T03:33:37;32.47;;;15.03;;
18176;SDS011;9213;50.858;3.964;2022-12-13T03:36:05;29.47;;;14.90;;
18176;SDS011;9213;50.858;3.964;2022-12-13T03:38:33;28.37;;;14.57;;
18176;SDS011;9213;50.858;3.964;2022-12-13T03:41:02;31.03;;;15.80;;
18176;SDS011;9213;50.858;3.964;2022-12-13T03:43:31;30.53;;;15.37;;
18176;SDS011;9213;50.858;3.964;2022-12-13T03:45:58;26.37;;;14.40;;
18176;SDS011;9213;50.858;3.964;2022-12-13T03:48:25;29.03;;;15.20;;
18176;SDS011;9213;50.858;3.964;2022-12-13T03:50:52;27.20;;;14.57;;
18176;SDS011;9213;50.858;3.964;2022-12-13T03:53:21;27.33;;;14.87;;
18176;SDS011;9213;50.858;3.964;2022-12-13T03:55:49;30.53;;;14.30;;
18176;SDS011;9213;50.858;3.964;2022-12-13T03:58:16;31.47;;;15.60;;
18176;SDS011;9213;50.858;3.964;2022-12-13T04:00:43;29.17;;;15.10;;
18176;SDS011;9213;50.858;3.964;2022-12-13T04:03:10;27.77;;;14.20;;
18176;SDS011;9213;50.858;3.964;2022-12-13T04:05:37;26.80;;;14.20;;
18176;SDS011;9213;50.858;3.964;2022-12-13T04:08:04;27.53;;;15.00;;
18176;SDS011;9213;50.858;3.964;2022-12-13T04:10:33;31.97;;;14.87;;
18176;SDS011;9213;50.858;3.964;2022-12-13T04:13:00;34.13;;;17.33;;
18176;SDS011;9213;50.858;3.964;2022-12-13T04:15:44;30.93;;;16.83;;
18176;SDS011;9213;50.858;3.964;2022-12-13T04:18:14;29.33;;;15.60;;
18176;SDS011;9213;50.858;3.964;2022-12-13T04:20:41;33.17;;;16.07;;
18176;SDS011;9213;50.858;3.964;2022-12-13T04:23:08;31.10;;;15.83;;
18176;SDS011;9213;50.858;3.964;2022-12-13T04:25:36;31.13;;;16.50;;
18176;SDS011;9213;50.858;3.964;2022-12-13T04:28:03;29.47;;;15.90;;
18176;SDS011;9213;50.858;3.964;2022-12-13T04:30:31;33.00;;;16.70;;
18176;SDS011;9213;50.858;3.964;2022-12-13T04:32:58;29.20;;;16.63;;
18176;SDS011;9213;50.858;3.964;2022-12-13T04:35:25;30.80;;;16.33;;
18176;SDS011;9213;50.858;3.964;2022-12-13T04:37:52;32.37;;;17.30;;
18176;SDS011;9213;50.858;3.964;2022-12-13T04:40:21;30.30;;;16.80;;
18176;SDS011;9213;50.858;3.964;2022-12-13T04:42:49;31.23;;;16.73;;
18176;SDS011;9213;50.858;3.964;2022-12-13T04:45:16;30.27;;;15.50;;
18176;SDS011;9213;50.858;3.964;2022-12-13T04:47:43;27.77;;;15.57;;
18176;SDS011;9213;50.858;3.964;2022-12-13T04:50:10;28.13;;;16.07;;
18176;SDS011;9213;50.858;3.964;2022-12-13T04:52:37;28.03;;;15.30;;
18176;SDS011;9213;50.858;3.964;2022-12-13T04:55:05;32.83;;;17.47;;
18176;SDS011;9213;50.858;3.964;2022-12-13T04:57:33;25.70;;;14.70;;
18176;SDS011;9213;50.858;3.964;2022-12-13T05:00:01;29.27;;;15.50;;
18176;SDS011;9213;50.858;3.964;2022-12-13T05:02:28;31.13;;;15.23;;
18176;SDS011;9213;50.858;3.964;2022-12-13T05:04:55;29.93;;;15.80;;
18176;SDS011;9213;50.858;3.964;2022-12-13T05:07:22;28.23;;;15.50;;
18176;SDS011;9213;50.858;3.964;2022-12-13T05:09:50;30.00;;;15.60;;
18176;SDS011;9213;50.858;3.964;2022-12-13T05:12:17;29.03;;;16.33;;
18176;SDS011;9213;50.858;3.964;2022-12-13T05:14:44;29.63;;;16.20;;
18176;SDS011;9213;50.858;3.964;2022-12-13T05:17:12;31.03;;;16.20;;
18176;SDS011;9213;50.858;3.964;2022-12-13T05:19:39;25.83;;;14.90;;
18176;SDS011;9213;50.858;3.964;2022-12-13T05:22:08;33.23;;;15.13;;
18176;SDS011;9213;50.858;3.964;2022-12-13T05:24:39;29.60;;;15.97;;
18176;SDS011;9213;50.858;3.964;2022-12-13T05:27:08;25.27;;;14.37;;
18176;SDS011;9213;50.858;3.964;2022-12-13T05:29:35;29.67;;;16.30;;
18176;SDS011;9213;50.858;3.964;2022-12-13T05:32:02;27.70;;;15.20;;
18176;SDS011;9213;50.858;3.964;2022-12-13T05:34:31;28.67;;;16.43;;
18176;SDS011;9213;50.858;3.964;2022-12-13T05:36:58;29.67;;;15.47;;
18176;SDS011;9213;50.858;3.964;2022-12-13T05:39:25;32.90;;;16.33;;
18176;SDS011;9213;50.858;3.964;2022-12-13T05:41:52;27.50;;;15.17;;
18176;SDS011;9213;50.858;3.964;2022-12-13T05:44:20;27.90;;;15.07;;
18176;SDS011;9213;50.858;3.964;2022-12-13T05:46:47;24.53;;;14.80;;
18176;SDS011;9213;50.858;3.964;2022-12-13T05:49:14;28.17;;;15.83;;
18176;SDS011;9213;50.858;3.964;2022-12-13T05:51:42;29.83;;;15.67;;
18176;SDS011;9213;50.858;3.964;2022-12-13T05:54:09;28.67;;;15.63;;
18176;SDS011;9213;50.858;3.964;2022-12-13T05:56:36;28.03;;;15.67;;
18176;SDS011;9213;50.858;3.964;2022-12-13T05:59:03;30.80;;;15.60;;
18176;SDS011;9213;50.858;3.964;2022-12-13T06:01:30;30.30;;;15.87;;
18176;SDS011;9213;50.858;3.964;2022-12-13T06:03:57;27.67;;;14.93;;
18176;SDS011;9213;50.858;3.964;2022-12-13T06:06:23;25.00;;;15.43;;
18176;SDS011;9213;50.858;3.964;2022-12-13T06:08:52;27.70;;;15.43;;
18176;SDS011;9213;50.858;3.964;2022-12-13T06:11:19;28.20;;;15.37;;
18176;SDS011;9213;50.858;3.964;2022-12-13T06:13:48;25.93;;;14.13;;
18176;SDS011;9213;50.858;3.964;2022-12-13T06:16:16;25.30;;;15.53;;
18176;SDS011;9213;50.858;3.964;2022-12-13T06:18:43;23.73;;;13.83;;
18176;SDS011;9213;50.858;3.964;2022-12-13T06:21:10;26.87;;;15.90;;
18176;SDS011;9213;50.858;3.964;2022-12-13T06:23:37;29.00;;;15.90;;
18176;SDS011;9213;50.858;3.964;2022-12-13T06:26:06;29.17;;;15.80;;
18176;SDS011;9213;50.858;3.964;2022-12-13T06:28:33;29.70;;;15.43;;
18176;SDS011;9213;50.858;3.964;2022-12-13T06:31:00;27.53;;;15.50;;
18176;SDS011;9213;50.858;3.964;2022-12-13T06:33:29;25.30;;;13.80;;
18176;SDS011;9213;50.858;3.964;2022-12-13T06:35:59;27.93;;;14.80;;
18176;SDS011;9213;50.858;3.964;2022-12-13T06:38:26;34.33;;;16.10;;
18176;SDS011;9213;50.858;3.964;2022-12-13T06:40:53;31.13;;;16.27;;
18176;SDS011;9213;50.858;3.964;2022-12-13T06:43:21;36.87;;;19.00;;
18176;SDS011;9213;50.858;3.964;2022-12-13T06:45:48;37.40;;;18.23;;
18176;SDS011;9213;50.858;3.964;2022-12-13T06:48:15;40.10;;;19.87;;
18176;SDS011;9213;50.858;3.964;2022-12-13T06:50:42;44.50;;;20.27;;
18176;SDS011;9213;50.858;3.964;2022-12-13T06:53:09;39.97;;;19.03;;
18176;SDS011;9213;50.858;3.964;2022-12-13T06:55:36;39.23;;;19.83;;
18176;SDS011;9213;50.858;3.964;2022-12-13T06:58:02;42.03;;;20.73;;
18176;SDS011;9213;50.858;3.964;2022-12-13T07:00:31;37.93;;;19.97;;
18176;SDS011;9213;50.858;3.964;2022-12-13T07:02:57;42.70;;;19.57;;
18176;SDS011;9213;50.858;3.964;2022-12-13T07:05:24;41.53;;;19.53;;
18176;SDS011;9213;50.858;3.964;2022-12-13T07:07:52;38.53;;;19.17;;
18176;SDS011;9213;50.858;3.964;2022-12-13T07:10:19;32.70;;;18.70;;
18176;SDS011;9213;50.858;3.964;2022-12-13T07:12:46;39.93;;;18.67;;
18176;SDS011;9213;50.858;3.964;2022-12-13T07:15:13;34.63;;;17.53;;
18176;SDS011;9213;50.858;3.964;2022-12-13T07:17:41;38.83;;;19.80;;
18176;SDS011;9213;50.858;3.964;2022-12-13T07:20:09;34.27;;;17.10;;
18176;SDS011;9213;50.858;3.964;2022-12-13T07:22:39;31.17;;;17.23;;
18176;SDS011;9213;50.858;3.964;2022-12-13T07:25:06;30.57;;;16.13;;
18176;SDS011;9213;50.858;3.964;2022-12-13T07:27:34;30.40;;;15.23;;
18176;SDS011;9213;50.858;3.964;2022-12-13T07:30:01;34.13;;;17.97;;
18176;SDS011;9213;50.858;3.964;2022-12-13T07:32:28;34.33;;;18.53;;
18176;SDS011;9213;50.858;3.964;2022-12-13T07:34:56;34.80;;;17.37;;
18176;SDS011;9213;50.858;3.964;2022-12-13T07:37:23;32.27;;;17.87;;
18176;SDS011;9213;50.858;3.964;2022-12-13T07:39:50;30.03;;;18.00;;
18176;SDS011;9213;50.858;3.964;2022-12-13T07:42:17;33.20;;;17.43;;
18176;SDS011;9213;50.858;3.964;2022-12-13T07:44:44;37.80;;;18.40;;
18176;SDS011;9213;50.858;3.964;2022-12-13T07:47:11;31.90;;;18.27;;
18176;SDS011;9213;50.858;3.964;2022-12-13T07:49:38;37.27;;;18.30;;
18176;SDS011;9213;50.858;3.964;2022-12-13T07:52:10;32.17;;;17.93;;
18176;SDS011;9213;50.858;3.964;2022-12-13T07:54:36;33.80;;;18.60;;
18176;SDS011;9213;50.858;3.964;2022-12-13T07:57:03;33.80;;;19.27;;
18176;SDS011;9213;50.858;3.964;2022-12-13T07:59:30;34.13;;;18.90;;
18176;SDS011;9213;50.858;3.964;2022-12-13T08:01:57;33.57;;;19.30;;
18176;SDS011;9213;50.858;3.964;2022-12-13T08:04:24;38.97;;;19.77;;
18176;SDS011;9213;50.858;3.964;2022-12-13T08:06:51;36.53;;;19.07;;
18176;SDS011;9213;50.858;3.964;2022-12-13T08:09:19;33.97;;;20.00;;
18176;SDS011;9213;50.858;3.964;2022-12-13T08:11:47;36.93;;;20.23;;
18176;SDS011;9213;50.858;3.964;2022-12-13T08:14:14;34.50;;;20.27;;
18176;SDS011;9213;50.858;3.964;2022-12-13T08:16:41;39.00;;;21.27;;
18176;SDS011;9213;50.858;3.964;2022-12-13T08:19:07;41.27;;;21.70;;
18176;SDS011;9213;50.858;3.964;2022-12-13T08:21:35;38.33;;;20.83;;
18176;SDS011;9213;50.858;3.964;2022-12-13T08:24:05;41.10;;;21.90;;
18176;SDS011;9213;50.858;3.964;2022-12-13T08:26:34;40.57;;;22.43;;
18176;SDS011;9213;50.858;3.964;2022-12-13T08:29:01;41.30;;;20.70;;
18176;SDS011;9213;50.858;3.964;2022-12-13T08:31:29;37.57;;;21.80;;
18176;SDS011;9213;50.858;3.964;2022-12-13T08:33:56;43.67;;;21.57;;
18176;SDS011;9213;50.858;3.964;2022-12-13T08:36:23;41.27;;;22.10;;
18176;SDS011;9213;50.858;3.964;2022-12-13T08:38:50;39.97;;;22.83;;
18176;SDS011;9213;50.858;3.964;2022-12-13T08:41:19;36.67;;;20.63;;
18176;SDS011;9213;50.858;3.964;2022-12-13T08:43:48;33.80;;;21.47;;
18176;SDS011;9213;50.858;3.964;2022-12-13T08:46:15;35.87;;;21.00;;
18176;SDS011;9213;50.858;3.964;2022-12-13T08:48:42;38.73;;;20.97;;
18176;SDS011;9213;50.858;3.964;2022-12-13T08:51:09;35.37;;;19.83;;
18176;SDS011;9213;50.858;3.964;2022-12-13T08:53:38;34.03;;;19.57;;
18176;SDS011;9213;50.858;3.964;2022-12-13T08:56:06;30.57;;;18.47;;
18176;SDS011;9213;50.858;3.964;2022-12-13T08:58:36;28.77;;;17.47;;
18176;SDS011;9213;50.858;3.964;2022-12-13T09:01:05;32.43;;;18.93;;
18176;SDS011;9213;50.858;3.964;2022-12-13T09:03:32;30.23;;;17.60;;
18176;SDS011;9213;50.858;3.964;2022-12-13T09:06:04;31.97;;;20.03;;
18176;SDS011;9213;50.858;3.964;2022-12-13T09:08:32;31.33;;;18.03;;
18176;SDS011;9213;50.858;3.964;2022-12-13T09:10:59;26.03;;;17.90;;
18176;SDS011;9213;50.858;3.964;2022-12-13T09:13:27;29.83;;;16.80;;
18176;SDS011;9213;50.858;3.964;2022-12-13T09:15:55;30.10;;;17.50;;
18176;SDS011;9213;50.858;3.964;2022-12-13T09:18:24;28.27;;;17.53;;
18176;SDS011;9213;50.858;3.964;2022-12-13T09:20:51;32.97;;;19.67;;
18176;SDS011;9213;50.858;3.964;2022-12-13T09:23:18;27.80;;;17.00;;
18176;SDS011;9213;50.858;3.964;2022-12-13T09:25:51;30.40;;;17.33;;
18176;SDS011;9213;50.858;3.964;2022-12-13T09:28:19;32.97;;;18.33;;
18176;SDS011;9213;50.858;3.964;2022-12-13T09:30:46;32.27;;;17.80;;
18176;SDS011;9213;50.858;3.964;2022-12-13T09:33:13;26.77;;;16.90;;
18176;SDS011;9213;50.858;3.964;2022-12-13T09:35:41;31.10;;;17.67;;
18176;SDS011;9213;50.858;3.964;2022-12-13T09:38:08;26.13;;;16.43;;
18176;SDS011;9213;50.858;3.964;2022-12-13T09:40:35;24.23;;;16.00;;
18176;SDS011;9213;50.858;3.964;2022-12-13T09:43:03;27.80;;;16.73;;
18176;SDS011;9213;50.858;3.964;2022-12-13T09:45:31;24.47;;;16.33;;
18176;SDS011;9213;50.858;3.964;2022-12-13T09:48:00;34.80;;;16.30;;
18176;SDS011;9213;50.858;3.964;2022-12-13T09:50:28;24.37;;;16.00;;
18176;SDS011;9213;50.858;3.964;2022-12-13T09:52:58;26.10;;;16.07;;
18176;SDS011;9213;50.858;3.964;2022-12-13T09:55:27;27.87;;;17.40;;
18176;SDS011;9213;50.858;3.964;2022-12-13T09:57:56;26.17;;;15.50;;
18176;SDS011;9213;50.858;3.964;2022-12-13T10:00:27;26.13;;;15.27;;
18176;SDS011;9213;50.858;3.964;2022-12-13T10:03:00;23.17;;;14.77;;
18176;SDS011;9213;50.858;3.964;2022-12-13T10:05:28;26.37;;;15.23;;
18176;SDS011;9213;50.858;3.964;2022-12-13T10:07:57;21.57;;;14.37;;
18176;SDS011;9213;50.858;3.964;2022-12-13T10:10:29;26.83;;;15.93;;
18176;SDS011;9213;50.858;3.964;2022-12-13T10:12:57;28.40;;;16.40;;
18176;SDS011;9213;50.858;3.964;2022-12-13T10:15:28;27.10;;;15.13;;
18176;SDS011;9213;50.858;3.964;2022-12-13T10:17:58;24.50;;;14.63;;
18176;SDS011;9213;50.858;3.964;2022-12-13T10:20:28;24.70;;;15.07;;
18176;SDS011;9213;50.858;3.964;2022-12-13T10:22:55;26.17;;;15.53;;
18176;SDS011;9213;50.858;3.964;2022-12-13T10:28:14;23.50;;;14.50;;
18176;SDS011;9213;50.858;3.964;2022-12-13T10:30:43;26.43;;;15.50;;
18176;SDS011;9213;50.858;3.964;2022-12-13T10:33:20;21.53;;;14.13;;
18176;SDS011;9213;50.858;3.964;2022-12-13T10:38:55;22.97;;;13.30;;
18176;SDS011;9213;50.858;3.964;2022-12-13T10:41:26;22.97;;;14.03;;
18176;SDS011;9213;50.858;3.964;2022-12-13T10:44:06;23.43;;;14.77;;
18176;SDS011;9213;50.858;3.964;2022-12-13T10:46:34;21.43;;;14.63;;
18176;SDS011;9213;50.858;3.964;2022-12-13T10:49:01;25.63;;;15.10;;
18176;SDS011;9213;50.858;3.964;2022-12-13T10:51:29;24.00;;;14.30;;
18176;SDS011;9213;50.858;3.964;2022-12-13T10:54:03;23.43;;;14.43;;
18176;SDS011;9213;50.858;3.964;2022-12-13T10:56:33;24.93;;;14.10;;
18176;SDS011;9213;50.858;3.964;2022-12-13T10:59:08;23.80;;;14.10;;
18176;SDS011;9213;50.858;3.964;2022-12-13T11:01:37;21.67;;;13.70;;
18176;SDS011;9213;50.858;3.964;2022-12-13T11:04:04;21.67;;;13.43;;
18176;SDS011;9213;50.858;3.964;2022-12-13T11:06:45;23.57;;;14.83;;
18176;SDS011;9213;50.858;3.964;2022-12-13T11:09:13;22.60;;;13.80;;
18176;SDS011;9213;50.858;3.964;2022-12-13T11:11:42;23.67;;;13.93;;
18176;SDS011;9213;50.858;3.964;2022-12-13T11:14:14;24.30;;;14.20;;
18176;SDS011;9213;50.858;3.964;2022-12-13T11:16:43;24.33;;;13.60;;
18176;SDS011;9213;50.858;3.964;2022-12-13T11:19:17;27.77;;;13.83;;
18176;SDS011;9213;50.858;3.964;2022-12-13T11:21:48;21.70;;;12.93;;
18176;SDS011;9213;50.858;3.964;2022-12-13T11:24:19;21.10;;;12.40;;
18176;SDS011;9213;50.858;3.964;2022-12-13T11:26:52;19.97;;;13.67;;
18176;SDS011;9213;50.858;3.964;2022-12-13T11:29:41;21.10;;;12.63;;
18176;SDS011;9213;50.858;3.964;2022-12-13T11:32:18;18.63;;;12.60;;
18176;SDS011;9213;50.858;3.964;2022-12-13T11:34:52;19.13;;;11.77;;
18176;SDS011;9213;50.858;3.964;2022-12-13T11:37:27;16.33;;;10.77;;
18176;SDS011;9213;50.858;3.964;2022-12-13T11:39:59;17.80;;;10.90;;
18176;SDS011;9213;50.858;3.964;2022-12-13T11:42:32;15.90;;;10.40;;
18176;SDS011;9213;50.858;3.964;2022-12-13T11:45:06;21.83;;;11.73;;
18176;SDS011;9213;50.858;3.964;2022-12-13T11:47:41;16.80;;;10.93;;
18176;SDS011;9213;50.858;3.964;2022-12-13T11:50:15;15.43;;;10.73;;
18176;SDS011;9213;50.858;3.964;2022-12-13T11:52:47;16.70;;;10.80;;
18176;SDS011;9213;50.858;3.964;2022-12-13T11:55:18;16.93;;;11.00;;
18176;SDS011;9213;50.858;3.964;2022-12-13T11:57:53;16.00;;;10.30;;
18176;SDS011;9213;50.858;3.964;2022-12-13T12:00:29;17.57;;;10.80;;
18176;SDS011;9213;50.858;3.964;2022-12-13T12:03:01;17.73;;;10.93;;
18176;SDS011;9213;50.858;3.964;2022-12-13T12:05:42;18.30;;;12.17;;
18176;SDS011;9213;50.858;3.964;2022-12-13T12:08:15;18.67;;;11.03;;
18176;SDS011;9213;50.858;3.964;2022-12-13T12:10:46;17.20;;;11.03;;
18176;SDS011;9213;50.858;3.964;2022-12-13T12:13:20;19.43;;;10.87;;
18176;SDS011;9213;50.858;3.964;2022-12-13T12:15:52;14.87;;;9.67;;
18176;SDS011;9213;50.858;3.964;2022-12-13T12:18:30;16.37;;;11.03;;
18176;SDS011;9213;50.858;3.964;2022-12-13T12:23:53;21.33;;;11.10;;
18176;SDS011;9213;50.858;3.964;2022-12-13T12:26:30;14.70;;;9.43;;
18176;SDS011;9213;50.858;3.964;2022-12-13T12:29:11;15.70;;;9.90;;
18176;SDS011;9213;50.858;3.964;2022-12-13T12:32:02;16.77;;;9.70;;
18176;SDS011;9213;50.858;3.964;2022-12-13T12:34:34;14.33;;;9.10;;
18176;SDS011;9213;50.858;3.964;2022-12-13T12:37:11;16.87;;;11.13;;
18176;SDS011;9213;50.858;3.964;2022-12-13T12:39:50;18.50;;;11.50;;
18176;SDS011;9213;50.858;3.964;2022-12-13T12:42:44;20.10;;;11.80;;
18176;SDS011;9213;50.858;3.964;2022-12-13T12:45:22;19.13;;;10.80;;
18176;SDS011;9213;50.858;3.964;2022-12-13T12:48:03;20.27;;;10.73;;
18176;SDS011;9213;50.858;3.964;2022-12-13T12:50:43;18.77;;;10.70;;
18176;SDS011;9213;50.858;3.964;2022-12-13T12:53:25;20.03;;;11.50;;
18176;SDS011;9213;50.858;3.964;2022-12-13T12:56:06;17.23;;;10.60;;
18176;SDS011;9213;50.858;3.964;2022-12-13T12:58:49;18.00;;;11.80;;
18176;SDS011;9213;50.858;3.964;2022-12-13T13:01:38;18.17;;;11.13;;
18176;SDS011;9213;50.858;3.964;2022-12-13T13:04:16;20.60;;;11.40;;
18176;SDS011;9213;50.858;3.964;2022-12-13T13:06:48;15.07;;;10.30;;
18176;SDS011;9213;50.858;3.964;2022-12-13T13:09:19;16.40;;;9.93;;
18176;SDS011;9213;50.858;3.964;2022-12-13T13:11:47;15.40;;;10.60;;
18176;SDS011;9213;50.858;3.964;2022-12-13T13:14:25;17.03;;;10.67;;
18176;SDS011;9213;50.858;3.964;2022-12-13T13:17:02;17.13;;;11.03;;
18176;SDS011;9213;50.858;3.964;2022-12-13T13:20:15;19.27;;;11.87;;
18176;SDS011;9213;50.858;3.964;2022-12-13T13:22:49;17.57;;;11.23;;
18176;SDS011;9213;50.858;3.964;2022-12-13T13:25:27;19.50;;;11.60;;
18176;SDS011;9213;50.858;3.964;2022-12-13T13:28:00;17.30;;;10.60;;
18176;SDS011;9213;50.858;3.964;2022-12-13T13:30:30;16.40;;;10.43;;
18176;SDS011;9213;50.858;3.964;2022-12-13T13:33:00;16.57;;;10.03;;
18176;SDS011;9213;50.858;3.964;2022-12-13T13:47:33;18.80;;;11.57;;
18176;SDS011;9213;50.858;3.964;2022-12-13T13:50:13;17.27;;;11.70;;
18176;SDS011;9213;50.858;3.964;2022-12-13T13:56:34;20.27;;;11.70;;
18176;SDS011;9213;50.858;3.964;2022-12-13T13:59:28;21.97;;;12.20;;
18176;SDS011;9213;50.858;3.964;2022-12-13T14:02:39;22.43;;;12.07;;
18176;SDS011;9213;50.858;3.964;2022-12-13T14:05:51;20.43;;;12.03;;
18176;SDS011;9213;50.858;3.964;2022-12-13T14:08:50;19.00;;;11.97;;
18176;SDS011;9213;50.858;3.964;2022-12-13T14:20:57;21.47;;;11.90;;
18176;SDS011;9213;50.858;3.964;2022-12-13T14:23:40;23.23;;;12.63;;
18176;SDS011;9213;50.858;3.964;2022-12-13T14:26:18;18.97;;;12.30;;
18176;SDS011;9213;50.858;3.964;2022-12-13T14:28:55;24.13;;;12.73;;
18176;SDS011;9213;50.858;3.964;2022-12-13T14:31:24;21.57;;;12.03;;
18176;SDS011;9213;50.858;3.964;2022-12-13T14:33:59;18.30;;;12.20;;
18176;SDS011;9213;50.858;3.964;2022-12-13T14:36:30;19.70;;;12.17;;
18176;SDS011;9213;50.858;3.964;2022-12-13T14:39:00;20.73;;;11.57;;
18176;SDS011;9213;50.858;3.964;2022-12-13T14:41:28;17.67;;;11.40;;
18176;SDS011;9213;50.858;3.964;2022-12-13T14:43:55;23.87;;;11.63;;
18176;SDS011;9213;50.858;3.964;2022-12-13T14:46:37;19.83;;;12.03;;
18176;SDS011;9213;50.858;3.964;2022-12-13T14:49:14;21.67;;;11.67;;
18176;SDS011;9213;50.858;3.964;2022-12-13T14:51:42;20.37;;;12.30;;
18176;SDS011;9213;50.858;3.964;2022-12-13T14:54:13;21.90;;;12.27;;
18176;SDS011;9213;50.858;3.964;2022-12-13T14:56:53;23.33;;;12.30;;
18176;SDS011;9213;50.858;3.964;2022-12-13T14:59:21;20.77;;;12.63;;
18176;SDS011;9213;50.858;3.964;2022-12-13T15:01:53;18.83;;;12.53;;
18176;SDS011;9213;50.858;3.964;2022-12-13T15:04:24;19.90;;;12.47;;
18176;SDS011;9213;50.858;3.964;2022-12-13T15:07:00;18.50;;;11.23;;
18176;SDS011;9213;50.858;3.964;2022-12-13T15:09:33;19.30;;;11.80;;
18176;SDS011;9213;50.858;3.964;2022-12-13T15:12:06;23.50;;;13.53;;
18176;SDS011;9213;50.858;3.964;2022-12-13T15:14:35;21.00;;;12.33;;
18176;SDS011;9213;50.858;3.964;2022-12-13T15:17:03;19.03;;;11.43;;
18176;SDS011;9213;50.858;3.964;2022-12-13T15:19:31;21.87;;;13.57;;
18176;SDS011;9213;50.858;3.964;2022-12-13T15:22:12;20.70;;;12.00;;
18176;SDS011;9213;50.858;3.964;2022-12-13T15:24:41;21.93;;;12.73;;
18176;SDS011;9213;50.858;3.964;2022-12-13T15:27:11;21.77;;;12.77;;
18176;SDS011;9213;50.858;3.964;2022-12-13T15:29:39;18.73;;;12.73;;
18176;SDS011;9213;50.858;3.964;2022-12-13T15:32:10;20.07;;;12.40;;
18176;SDS011;9213;50.858;3.964;2022-12-13T15:34:40;19.30;;;12.03;;
18176;SDS011;9213;50.858;3.964;2022-12-13T15:37:15;24.50;;;13.03;;
18176;SDS011;9213;50.858;3.964;2022-12-13T15:39:45;23.10;;;12.50;;